sensor_id;sensor_type;location;lat;lon;timestamp;temperature;humidity
81161;DHT22;70637;48.514;14.500;2023-09-19T00:02:20;29.10;36.20
81161;DHT22;70637;48.514;14.500;2023-09-19T00:04:46;29.10;36.20
81161;DHT22;70637;48.514;14.500;2023-09-19T00:07:14;29.10;36.20
81161;DHT22;70637;48.514;14.500;2023-09-19T00:09:44;29.10;36.20
81161;DHT22;70637;48.514;14.500;2023-09-19T00:12:11;29.10;36.20
81161;DHT22;70637;48.514;14.500;2023-09-19T00:14:39;29.10;36.20
81161;DHT22;70637;48.514;14.500;2023-09-19T00:17:05;29.10;36.30
81161;DHT22;70637;48.514;14.500;2023-09-19T00:19:35;29.10;36.20
81161;DHT22;70637;48.514;14.500;2023-09-19T00:22:01;29.10;36.20
81161;DHT22;70637;48.514;14.500;2023-09-19T00:24:27;29.10;36.20
81161;DHT22;70637;48.514;14.500;2023-09-19T00:26:57;29.10;36.20
81161;DHT22;70637;48.514;14.500;2023-09-19T00:29:26;29.10;36.30
81161;DHT22;70637;48.514;14.500;2023-09-19T00:31:55;29.10;36.30
81161;DHT22;70637;48.514;14.500;2023-09-19T00:34:23;29.00;36.20
81161;DHT22;70637;48.514;14.500;2023-09-19T00:36:51;29.00;36.10
81161;DHT22;70637;48.514;14.500;2023-09-19T00:39:18;29.10;36.30
81161;DHT22;70637;48.514;14.500;2023-09-19T00:41:49;29.10;36.30
81161;DHT22;70637;48.514;14.500;2023-09-19T00:44:18;29.00;36.80
81161;DHT22;70637;48.514;14.500;2023-09-19T00:46:47;29.10;36.30
81161;DHT22;70637;48.514;14.500;2023-09-19T00:49:21;29.00;36.30
81161;DHT22;70637;48.514;14.500;2023-09-19T00:51:48;29.00;36.30
81161;DHT22;70637;48.514;14.500;2023-09-19T00:54:18;29.00;36.30
81161;DHT22;70637;48.514;14.500;2023-09-19T00:56:45;29.00;36.30
81161;DHT22;70637;48.514;14.500;2023-09-19T00:59:15;29.00;36.30
81161;DHT22;70637;48.514;14.500;2023-09-19T01:01:41;29.00;36.30
81161;DHT22;70637;48.514;14.500;2023-09-19T01:04:11;29.00;36.30
81161;DHT22;70637;48.514;14.500;2023-09-19T01:06:38;29.00;36.30
81161;DHT22;70637;48.514;14.500;2023-09-19T01:09:05;29.00;36.30
81161;DHT22;70637;48.514;14.500;2023-09-19T01:11:43;29.00;36.30
81161;DHT22;70637;48.514;14.500;2023-09-19T01:14:25;29.00;35.60
81161;DHT22;70637;48.514;14.500;2023-09-19T01:17:03;29.00;36.40
81161;DHT22;70637;48.514;14.500;2023-09-19T01:19:53;29.00;36.40
81161;DHT22;70637;48.514;14.500;2023-09-19T01:26:07;28.90;36.40
81161;DHT22;70637;48.514;14.500;2023-09-19T01:31:40;28.90;36.50
81161;DHT22;70637;48.514;14.500;2023-09-19T01:34:08;28.90;36.40
81161;DHT22;70637;48.514;14.500;2023-09-19T01:36:36;28.90;36.50
81161;DHT22;70637;48.514;14.500;2023-09-19T01:39:09;28.90;36.50
81161;DHT22;70637;48.514;14.500;2023-09-19T01:41:47;28.90;36.40
81161;DHT22;70637;48.514;14.500;2023-09-19T01:44:40;28.90;36.50
81161;DHT22;70637;48.514;14.500;2023-09-19T01:50:36;28.90;36.40
81161;DHT22;70637;48.514;14.500;2023-09-19T01:53:23;28.90;36.40
81161;DHT22;70637;48.514;14.500;2023-09-19T01:55:50;28.90;36.50
81161;DHT22;70637;48.514;14.500;2023-09-19T01:58:33;28.90;36.50
81161;DHT22;70637;48.514;14.500;2023-09-19T02:01:01;28.90;36.50
81161;DHT22;70637;48.514;14.500;2023-09-19T02:03:28;28.90;36.50
81161;DHT22;70637;48.514;14.500;2023-09-19T02:05:55;28.90;36.60
81161;DHT22;70637;48.514;14.500;2023-09-19T02:08:22;28.90;36.60
81161;DHT22;70637;48.514;14.500;2023-09-19T02:10:51;28.90;36.50
81161;DHT22;70637;48.514;14.500;2023-09-19T02:13:19;28.90;36.50
81161;DHT22;70637;48.514;14.500;2023-09-19T02:15:46;28.90;36.50
81161;DHT22;70637;48.514;14.500;2023-09-19T02:18:15;28.90;36.50
81161;DHT22;70637;48.514;14.500;2023-09-19T02:20:45;28.80;36.50
81161;DHT22;70637;48.514;14.500;2023-09-19T02:23:12;28.80;36.50
81161;DHT22;70637;48.514;14.500;2023-09-19T02:25:39;28.90;36.60
81161;DHT22;70637;48.514;14.500;2023-09-19T02:28:06;28.90;36.50
81161;DHT22;70637;48.514;14.500;2023-09-19T02:30:32;28.80;36.40
81161;DHT22;70637;48.514;14.500;2023-09-19T02:33:00;28.90;36.50
81161;DHT22;70637;48.514;14.500;2023-09-19T02:35:29;28.90;36.40
81161;DHT22;70637;48.514;14.500;2023-09-19T02:38:00;28.90;36.50
81161;DHT22;70637;48.514;14.500;2023-09-19T02:40:26;28.90;36.40
81161;DHT22;70637;48.514;14.500;2023-09-19T02:42:54;28.90;36.40
81161;DHT22;70637;48.514;14.500;2023-09-19T02:45:20;28.80;36.40
81161;DHT22;70637;48.514;14.500;2023-09-19T02:47:47;28.90;36.40
81161;DHT22;70637;48.514;14.500;2023-09-19T02:50:14;28.90;36.40
81161;DHT22;70637;48.514;14.500;2023-09-19T02:52:42;28.90;36.40
81161;DHT22;70637;48.514;14.500;2023-09-19T02:55:14;28.80;36.30
81161;DHT22;70637;48.514;14.500;2023-09-19T02:57:50;28.90;36.30
81161;DHT22;70637;48.514;14.500;2023-09-19T03:00:18;28.90;36.30
81161;DHT22;70637;48.514;14.500;2023-09-19T03:02:48;28.80;36.30
81161;DHT22;70637;48.514;14.500;2023-09-19T03:05:14;28.90;36.40
81161;DHT22;70637;48.514;14.500;2023-09-19T03:07:41;28.90;36.30
81161;DHT22;70637;48.514;14.500;2023-09-19T03:10:09;28.90;36.30
81161;DHT22;70637;48.514;14.500;2023-09-19T03:12:35;28.90;36.30
81161;DHT22;70637;48.514;14.500;2023-09-19T03:15:02;28.90;36.40
81161;DHT22;70637;48.514;14.500;2023-09-19T03:17:30;28.90;36.30
81161;DHT22;70637;48.514;14.500;2023-09-19T03:19:56;28.90;36.30
81161;DHT22;70637;48.514;14.500;2023-09-19T03:22:25;28.90;36.30
81161;DHT22;70637;48.514;14.500;2023-09-19T03:24:52;28.90;36.30
81161;DHT22;70637;48.514;14.500;2023-09-19T03:27:19;28.90;36.30
81161;DHT22;70637;48.514;14.500;2023-09-19T03:29:46;28.90;36.30
81161;DHT22;70637;48.514;14.500;2023-09-19T03:32:13;28.90;36.20
81161;DHT22;70637;48.514;14.500;2023-09-19T03:34:39;28.90;36.20
81161;DHT22;70637;48.514;14.500;2023-09-19T03:37:12;28.90;36.30
81161;DHT22;70637;48.514;14.500;2023-09-19T03:39:38;28.90;36.20
81161;DHT22;70637;48.514;14.500;2023-09-19T03:42:06;28.90;36.20
81161;DHT22;70637;48.514;14.500;2023-09-19T03:44:35;28.80;36.10
81161;DHT22;70637;48.514;14.500;2023-09-19T03:47:01;28.90;36.20
81161;DHT22;70637;48.514;14.500;2023-09-19T03:49:29;28.90;36.20
81161;DHT22;70637;48.514;14.500;2023-09-19T03:51:56;28.80;36.10
81161;DHT22;70637;48.514;14.500;2023-09-19T03:54:22;28.80;36.20
81161;DHT22;70637;48.514;14.500;2023-09-19T03:56:51;28.80;36.20
81161;DHT22;70637;48.514;14.500;2023-09-19T03:59:17;28.80;36.20
81161;DHT22;70637;48.514;14.500;2023-09-19T04:01:44;28.80;36.20
81161;DHT22;70637;48.514;14.500;2023-09-19T04:04:10;28.80;36.20
81161;DHT22;70637;48.514;14.500;2023-09-19T04:06:37;28.80;36.20
81161;DHT22;70637;48.514;14.500;2023-09-19T04:09:04;28.80;36.30
81161;DHT22;70637;48.514;14.500;2023-09-19T04:11:33;28.80;36.30
81161;DHT22;70637;48.514;14.500;2023-09-19T04:13:59;28.80;36.30
81161;DHT22;70637;48.514;14.500;2023-09-19T04:16:28;28.80;36.30
81161;DHT22;70637;48.514;14.500;2023-09-19T04:18:54;28.80;36.30
81161;DHT22;70637;48.514;14.500;2023-09-19T04:21:20;28.80;36.30
81161;DHT22;70637;48.514;14.500;2023-09-19T04:23:46;28.80;36.30
81161;DHT22;70637;48.514;14.500;2023-09-19T04:26:11;28.80;36.30
81161;DHT22;70637;48.514;14.500;2023-09-19T04:28:38;28.80;36.20
81161;DHT22;70637;48.514;14.500;2023-09-19T04:31:04;28.80;36.30
81161;DHT22;70637;48.514;14.500;2023-09-19T04:33:33;28.80;36.30
81161;DHT22;70637;48.514;14.500;2023-09-19T04:36:01;28.80;36.20
81161;DHT22;70637;48.514;14.500;2023-09-19T04:38:29;28.80;36.20
81161;DHT22;70637;48.514;14.500;2023-09-19T04:40:59;28.80;36.30
81161;DHT22;70637;48.514;14.500;2023-09-19T04:43:26;28.70;36.10
81161;DHT22;70637;48.514;14.500;2023-09-19T04:45:52;28.70;36.20
81161;DHT22;70637;48.514;14.500;2023-09-19T04:48:24;28.70;36.10
81161;DHT22;70637;48.514;14.500;2023-09-19T04:50:50;28.70;36.10
81161;DHT22;70637;48.514;14.500;2023-09-19T04:53:17;28.70;36.10
81161;DHT22;70637;48.514;14.500;2023-09-19T04:55:49;28.70;36.10
81161;DHT22;70637;48.514;14.500;2023-09-19T04:58:15;28.70;36.10
81161;DHT22;70637;48.514;14.500;2023-09-19T05:00:42;28.70;36.00
81161;DHT22;70637;48.514;14.500;2023-09-19T05:03:08;28.70;36.00
81161;DHT22;70637;48.514;14.500;2023-09-19T05:05:37;28.70;36.00
81161;DHT22;70637;48.514;14.500;2023-09-19T05:08:04;28.70;36.20
81161;DHT22;70637;48.514;14.500;2023-09-19T05:10:32;28.70;36.00
81161;DHT22;70637;48.514;14.500;2023-09-19T05:12:58;28.70;36.00
81161;DHT22;70637;48.514;14.500;2023-09-19T05:15:24;28.70;36.10
81161;DHT22;70637;48.514;14.500;2023-09-19T05:17:52;28.70;36.00
81161;DHT22;70637;48.514;14.500;2023-09-19T05:20:26;28.70;36.00
81161;DHT22;70637;48.514;14.500;2023-09-19T05:23:15;28.70;35.90
81161;DHT22;70637;48.514;14.500;2023-09-19T05:25:42;28.70;36.00
81161;DHT22;70637;48.514;14.500;2023-09-19T05:28:15;28.70;35.90
81161;DHT22;70637;48.514;14.500;2023-09-19T05:30:43;28.70;35.90
81161;DHT22;70637;48.514;14.500;2023-09-19T05:33:09;28.70;35.80
81161;DHT22;70637;48.514;14.500;2023-09-19T05:35:36;28.60;35.70
81161;DHT22;70637;48.514;14.500;2023-09-19T05:38:07;28.60;35.70
81161;DHT22;70637;48.514;14.500;2023-09-19T05:40:45;28.60;35.70
81161;DHT22;70637;48.514;14.500;2023-09-19T05:43:11;28.60;35.70
81161;DHT22;70637;48.514;14.500;2023-09-19T05:45:41;28.60;35.70
81161;DHT22;70637;48.514;14.500;2023-09-19T05:48:11;28.70;35.80
81161;DHT22;70637;48.514;14.500;2023-09-19T05:50:42;28.60;35.70
81161;DHT22;70637;48.514;14.500;2023-09-19T05:53:08;28.60;35.70
81161;DHT22;70637;48.514;14.500;2023-09-19T05:55:37;28.60;35.70
81161;DHT22;70637;48.514;14.500;2023-09-19T05:58:04;28.60;35.70
81161;DHT22;70637;48.514;14.500;2023-09-19T06:00:30;28.60;35.70
81161;DHT22;70637;48.514;14.500;2023-09-19T06:02:58;28.60;35.70
81161;DHT22;70637;48.514;14.500;2023-09-19T06:05:36;28.60;35.60
81161;DHT22;70637;48.514;14.500;2023-09-19T06:08:08;28.60;35.60
81161;DHT22;70637;48.514;14.500;2023-09-19T06:10:37;28.60;35.60
81161;DHT22;70637;48.514;14.500;2023-09-19T06:13:04;28.60;35.60
81161;DHT22;70637;48.514;14.500;2023-09-19T06:15:35;28.60;35.70
81161;DHT22;70637;48.514;14.500;2023-09-19T06:18:02;28.60;35.70
81161;DHT22;70637;48.514;14.500;2023-09-19T06:20:31;28.60;35.60
81161;DHT22;70637;48.514;14.500;2023-09-19T06:22:58;28.60;35.60
81161;DHT22;70637;48.514;14.500;2023-09-19T06:25:25;28.60;35.70
81161;DHT22;70637;48.514;14.500;2023-09-19T06:27:52;28.60;35.70
81161;DHT22;70637;48.514;14.500;2023-09-19T06:30:24;28.60;35.70
81161;DHT22;70637;48.514;14.500;2023-09-19T06:32:59;28.60;35.70
81161;DHT22;70637;48.514;14.500;2023-09-19T06:35:29;28.60;35.90
81161;DHT22;70637;48.514;14.500;2023-09-19T06:37:58;28.60;35.80
81161;DHT22;70637;48.514;14.500;2023-09-19T06:40:27;28.60;36.00
81161;DHT22;70637;48.514;14.500;2023-09-19T06:42:57;28.60;35.90
81161;DHT22;70637;48.514;14.500;2023-09-19T06:45:23;28.60;36.00
81161;DHT22;70637;48.514;14.500;2023-09-19T06:47:52;28.60;36.00
81161;DHT22;70637;48.514;14.500;2023-09-19T06:50:23;28.60;36.00
81161;DHT22;70637;48.514;14.500;2023-09-19T06:52:53;28.60;36.10
81161;DHT22;70637;48.514;14.500;2023-09-19T06:55:21;28.60;36.10
81161;DHT22;70637;48.514;14.500;2023-09-19T06:57:50;28.60;36.10
81161;DHT22;70637;48.514;14.500;2023-09-19T07:00:17;28.60;36.10
81161;DHT22;70637;48.514;14.500;2023-09-19T07:03:01;28.70;36.10
81161;DHT22;70637;48.514;14.500;2023-09-19T07:05:34;28.60;36.10
81161;DHT22;70637;48.514;14.500;2023-09-19T07:08:05;28.60;36.10
81161;DHT22;70637;48.514;14.500;2023-09-19T07:10:32;28.70;36.40
81161;DHT22;70637;48.514;14.500;2023-09-19T07:13:04;28.70;36.10
81161;DHT22;70637;48.514;14.500;2023-09-19T07:15:32;28.70;36.20
81161;DHT22;70637;48.514;14.500;2023-09-19T07:18:04;28.70;36.30
81161;DHT22;70637;48.514;14.500;2023-09-19T07:20:31;28.70;36.10
81161;DHT22;70637;48.514;14.500;2023-09-19T07:23:00;28.70;36.20
81161;DHT22;70637;48.514;14.500;2023-09-19T07:25:27;28.70;36.20
81161;DHT22;70637;48.514;14.500;2023-09-19T07:27:55;28.70;36.10
81161;DHT22;70637;48.514;14.500;2023-09-19T07:30:22;28.70;36.20
81161;DHT22;70637;48.514;14.500;2023-09-19T07:32:48;28.70;37.30
81161;DHT22;70637;48.514;14.500;2023-09-19T07:35:15;28.80;36.40
81161;DHT22;70637;48.514;14.500;2023-09-19T07:37:41;28.80;36.30
81161;DHT22;70637;48.514;14.500;2023-09-19T07:40:08;28.80;36.30
81161;DHT22;70637;48.514;14.500;2023-09-19T07:42:36;28.80;36.20
81161;DHT22;70637;48.514;14.500;2023-09-19T07:45:05;28.90;36.10
81161;DHT22;70637;48.514;14.500;2023-09-19T07:47:31;28.90;36.20
81161;DHT22;70637;48.514;14.500;2023-09-19T07:49:59;28.90;36.20
81161;DHT22;70637;48.514;14.500;2023-09-19T07:52:26;28.90;36.10
81161;DHT22;70637;48.514;14.500;2023-09-19T07:54:53;28.90;36.10
81161;DHT22;70637;48.514;14.500;2023-09-19T07:57:20;28.90;36.00
81161;DHT22;70637;48.514;14.500;2023-09-19T07:59:46;28.90;36.10
81161;DHT22;70637;48.514;14.500;2023-09-19T08:02:12;28.90;36.10
81161;DHT22;70637;48.514;14.500;2023-09-19T08:04:45;28.90;36.10
81161;DHT22;70637;48.514;14.500;2023-09-19T08:07:14;28.80;36.00
81161;DHT22;70637;48.514;14.500;2023-09-19T08:09:40;28.80;36.00
81161;DHT22;70637;48.514;14.500;2023-09-19T08:12:07;28.90;36.00
81161;DHT22;70637;48.514;14.500;2023-09-19T08:14:36;28.90;36.10
81161;DHT22;70637;48.514;14.500;2023-09-19T08:17:03;28.90;36.00
81161;DHT22;70637;48.514;14.500;2023-09-19T08:19:34;28.90;36.20
81161;DHT22;70637;48.514;14.500;2023-09-19T08:22:06;28.90;36.50
81161;DHT22;70637;48.514;14.500;2023-09-19T08:24:42;28.90;36.70
81161;DHT22;70637;48.514;14.500;2023-09-19T08:27:09;28.90;36.70
81161;DHT22;70637;48.514;14.500;2023-09-19T08:29:36;28.90;36.80
81161;DHT22;70637;48.514;14.500;2023-09-19T08:32:02;28.90;36.90
81161;DHT22;70637;48.514;14.500;2023-09-19T08:34:28;28.90;37.00
81161;DHT22;70637;48.514;14.500;2023-09-19T08:36:59;29.00;37.00
81161;DHT22;70637;48.514;14.500;2023-09-19T08:39:25;29.00;36.90
81161;DHT22;70637;48.514;14.500;2023-09-19T08:41:59;29.00;37.90
81161;DHT22;70637;48.514;14.500;2023-09-19T08:44:28;29.00;37.10
81161;DHT22;70637;48.514;14.500;2023-09-19T08:47:17;29.00;36.80
81161;DHT22;70637;48.514;14.500;2023-09-19T08:50:27;28.90;36.70
81161;DHT22;70637;48.514;14.500;2023-09-19T08:52:47;29.00;36.80
81161;DHT22;70637;48.514;14.500;2023-09-19T08:55:25;29.00;37.00
81161;DHT22;70637;48.514;14.500;2023-09-19T08:58:04;29.00;36.90
81161;DHT22;70637;48.514;14.500;2023-09-19T09:00:33;29.00;36.90
81161;DHT22;70637;48.514;14.500;2023-09-19T09:03:01;29.00;36.80
81161;DHT22;70637;48.514;14.500;2023-09-19T09:05:28;29.00;37.80
81161;DHT22;70637;48.514;14.500;2023-09-19T09:07:59;29.10;36.90
81161;DHT22;70637;48.514;14.500;2023-09-19T09:10:25;29.10;36.80
81161;DHT22;70637;48.514;14.500;2023-09-19T09:12:53;29.00;36.80
81161;DHT22;70637;48.514;14.500;2023-09-19T09:15:23;29.10;36.80
81161;DHT22;70637;48.514;14.500;2023-09-19T09:17:49;29.10;36.80
81161;DHT22;70637;48.514;14.500;2023-09-19T09:20:19;29.10;36.80
81161;DHT22;70637;48.514;14.500;2023-09-19T09:22:52;29.10;36.80
81161;DHT22;70637;48.514;14.500;2023-09-19T09:25:19;29.10;37.00
81161;DHT22;70637;48.514;14.500;2023-09-19T09:28:02;29.10;37.00
81161;DHT22;70637;48.514;14.500;2023-09-19T09:30:35;29.10;37.30
81161;DHT22;70637;48.514;14.500;2023-09-19T09:33:09;29.10;38.40
81161;DHT22;70637;48.514;14.500;2023-09-19T09:35:53;29.10;37.40
81161;DHT22;70637;48.514;14.500;2023-09-19T09:38:28;29.10;37.60
81161;DHT22;70637;48.514;14.500;2023-09-19T09:40:58;29.10;37.60
81161;DHT22;70637;48.514;14.500;2023-09-19T09:43:36;29.10;37.60
81161;DHT22;70637;48.514;14.500;2023-09-19T09:46:18;29.10;37.70
81161;DHT22;70637;48.514;14.500;2023-09-19T09:49:03;29.10;37.90
81161;DHT22;70637;48.514;14.500;2023-09-19T09:51:48;29.10;38.20
81161;DHT22;70637;48.514;14.500;2023-09-19T09:54:23;29.10;38.20
81161;DHT22;70637;48.514;14.500;2023-09-19T10:00:03;29.10;38.40
81161;DHT22;70637;48.514;14.500;2023-09-19T10:02:49;29.10;38.60
81161;DHT22;70637;48.514;14.500;2023-09-19T10:05:18;29.10;38.40
81161;DHT22;70637;48.514;14.500;2023-09-19T10:07:49;29.10;38.40
81161;DHT22;70637;48.514;14.500;2023-09-19T10:10:32;29.10;38.50
81161;DHT22;70637;48.514;14.500;2023-09-19T10:13:19;29.10;38.50
81161;DHT22;70637;48.514;14.500;2023-09-19T10:15:51;29.10;38.50
81161;DHT22;70637;48.514;14.500;2023-09-19T10:18:26;29.10;38.50
81161;DHT22;70637;48.514;14.500;2023-09-19T10:20:53;29.10;38.60
81161;DHT22;70637;48.514;14.500;2023-09-19T10:23:21;29.10;38.70
81161;DHT22;70637;48.514;14.500;2023-09-19T10:25:52;29.10;38.60
81161;DHT22;70637;48.514;14.500;2023-09-19T10:28:19;29.20;38.70
81161;DHT22;70637;48.514;14.500;2023-09-19T10:30:49;29.20;38.50
81161;DHT22;70637;48.514;14.500;2023-09-19T10:33:42;29.20;38.50
81161;DHT22;70637;48.514;14.500;2023-09-19T10:36:12;29.10;38.30
81161;DHT22;70637;48.514;14.500;2023-09-19T10:38:39;29.20;38.30
81161;DHT22;70637;48.514;14.500;2023-09-19T10:41:41;29.20;38.10
81161;DHT22;70637;48.514;14.500;2023-09-19T10:44:33;29.10;37.90
81161;DHT22;70637;48.514;14.500;2023-09-19T10:47:02;29.10;37.70
81161;DHT22;70637;48.514;14.500;2023-09-19T10:49:32;29.10;37.70
81161;DHT22;70637;48.514;14.500;2023-09-19T10:51:59;29.10;37.60
81161;DHT22;70637;48.514;14.500;2023-09-19T10:54:31;29.10;37.60
81161;DHT22;70637;48.514;14.500;2023-09-19T10:57:00;29.10;37.50
81161;DHT22;70637;48.514;14.500;2023-09-19T10:59:30;29.10;37.60
81161;DHT22;70637;48.514;14.500;2023-09-19T11:02:18;29.10;37.40
81161;DHT22;70637;48.514;14.500;2023-09-19T11:04:48;29.10;37.30
81161;DHT22;70637;48.514;14.500;2023-09-19T11:07:15;29.10;37.30
81161;DHT22;70637;48.514;14.500;2023-09-19T11:15:09;29.10;36.80
81161;DHT22;70637;48.514;14.500;2023-09-19T11:17:40;29.10;36.80
81161;DHT22;70637;48.514;14.500;2023-09-19T11:20:21;29.20;36.90
81161;DHT22;70637;48.514;14.500;2023-09-19T11:30:33;29.20;36.70
81161;DHT22;70637;48.514;14.500;2023-09-19T11:33:22;29.20;36.60
81161;DHT22;70637;48.514;14.500;2023-09-19T11:36:12;29.10;36.30
81161;DHT22;70637;48.514;14.500;2023-09-19T11:43:53;29.20;36.40
81161;DHT22;70637;48.514;14.500;2023-09-19T11:46:24;29.20;36.40
81161;DHT22;70637;48.514;14.500;2023-09-19T11:48:51;29.20;36.30
81161;DHT22;70637;48.514;14.500;2023-09-19T11:51:22;29.20;36.30
81161;DHT22;70637;48.514;14.500;2023-09-19T11:53:52;29.20;36.20
81161;DHT22;70637;48.514;14.500;2023-09-19T11:56:25;29.20;36.20
81161;DHT22;70637;48.514;14.500;2023-09-19T11:58:56;29.20;36.20
81161;DHT22;70637;48.514;14.500;2023-09-19T12:01:28;29.20;36.10
81161;DHT22;70637;48.514;14.500;2023-09-19T12:03:57;29.20;36.00
81161;DHT22;70637;48.514;14.500;2023-09-19T12:06:24;29.20;36.00
81161;DHT22;70637;48.514;14.500;2023-09-19T12:08:51;29.20;36.10
81161;DHT22;70637;48.514;14.500;2023-09-19T12:11:21;29.20;36.00
81161;DHT22;70637;48.514;14.500;2023-09-19T12:13:49;29.20;35.90
81161;DHT22;70637;48.514;14.500;2023-09-19T12:16:17;29.20;35.90
81161;DHT22;70637;48.514;14.500;2023-09-19T12:18:46;29.20;35.90
81161;DHT22;70637;48.514;14.500;2023-09-19T12:21:30;29.20;35.90
81161;DHT22;70637;48.514;14.500;2023-09-19T12:24:15;29.20;35.90
81161;DHT22;70637;48.514;14.500;2023-09-19T12:26:46;29.20;35.90
81161;DHT22;70637;48.514;14.500;2023-09-19T12:29:22;29.20;36.00
81161;DHT22;70637;48.514;14.500;2023-09-19T12:32:00;29.20;36.00
81161;DHT22;70637;48.514;14.500;2023-09-19T12:34:32;29.20;35.90
81161;DHT22;70637;48.514;14.500;2023-09-19T12:37:10;29.30;35.90
81161;DHT22;70637;48.514;14.500;2023-09-19T12:42:09;29.30;35.90
81161;DHT22;70637;48.514;14.500;2023-09-19T12:44:37;29.30;36.00
81161;DHT22;70637;48.514;14.500;2023-09-19T12:47:14;29.20;35.90
81161;DHT22;70637;48.514;14.500;2023-09-19T12:50:17;29.20;36.00
81161;DHT22;70637;48.514;14.500;2023-09-19T12:52:52;29.20;36.10
81161;DHT22;70637;48.514;14.500;2023-09-19T12:55:30;29.20;36.20
81161;DHT22;70637;48.514;14.500;2023-09-19T12:58:14;29.20;36.20
81161;DHT22;70637;48.514;14.500;2023-09-19T13:00:45;29.20;36.30
81161;DHT22;70637;48.514;14.500;2023-09-19T13:03:18;29.20;36.30
81161;DHT22;70637;48.514;14.500;2023-09-19T13:05:49;29.20;36.20
81161;DHT22;70637;48.514;14.500;2023-09-19T13:08:27;29.30;36.20
81161;DHT22;70637;48.514;14.500;2023-09-19T13:11:15;29.20;36.10
81161;DHT22;70637;48.514;14.500;2023-09-19T13:13:50;29.20;35.90
81161;DHT22;70637;48.514;14.500;2023-09-19T13:16:21;29.20;35.70
81161;DHT22;70637;48.514;14.500;2023-09-19T13:18:50;29.20;35.50
81161;DHT22;70637;48.514;14.500;2023-09-19T13:21:31;29.10;35.40
81161;DHT22;70637;48.514;14.500;2023-09-19T13:24:24;29.10;35.60
81161;DHT22;70637;48.514;14.500;2023-09-19T13:26:55;29.10;35.70
81161;DHT22;70637;48.514;14.500;2023-09-19T13:29:29;29.10;35.80
81161;DHT22;70637;48.514;14.500;2023-09-19T13:31:55;29.20;35.90
81161;DHT22;70637;48.514;14.500;2023-09-19T13:34:21;29.20;35.90
81161;DHT22;70637;48.514;14.500;2023-09-19T13:36:47;29.20;36.00
81161;DHT22;70637;48.514;14.500;2023-09-19T13:39:15;29.20;36.20
81161;DHT22;70637;48.514;14.500;2023-09-19T13:41:43;29.10;36.40
81161;DHT22;70637;48.514;14.500;2023-09-19T13:44:09;29.10;36.30
81161;DHT22;70637;48.514;14.500;2023-09-19T13:46:36;29.10;36.30
81161;DHT22;70637;48.514;14.500;2023-09-19T13:49:02;29.10;36.50
81161;DHT22;70637;48.514;14.500;2023-09-19T13:51:31;29.10;36.60
81161;DHT22;70637;48.514;14.500;2023-09-19T13:53:58;29.10;36.50
81161;DHT22;70637;48.514;14.500;2023-09-19T13:56:27;29.10;36.40
81161;DHT22;70637;48.514;14.500;2023-09-19T13:58:54;29.10;36.30
81161;DHT22;70637;48.514;14.500;2023-09-19T14:01:20;29.10;36.40
81161;DHT22;70637;48.514;14.500;2023-09-19T14:03:48;29.10;36.50
81161;DHT22;70637;48.514;14.500;2023-09-19T14:06:17;29.10;36.50
81161;DHT22;70637;48.514;14.500;2023-09-19T14:08:44;29.10;36.60
81161;DHT22;70637;48.514;14.500;2023-09-19T14:11:13;29.10;36.60
81161;DHT22;70637;48.514;14.500;2023-09-19T14:13:40;29.10;36.60
81161;DHT22;70637;48.514;14.500;2023-09-19T14:16:06;29.10;36.60
81161;DHT22;70637;48.514;14.500;2023-09-19T14:18:34;29.10;36.80
81161;DHT22;70637;48.514;14.500;2023-09-19T14:21:06;29.10;36.60
81161;DHT22;70637;48.514;14.500;2023-09-19T14:23:35;29.10;36.60
81161;DHT22;70637;48.514;14.500;2023-09-19T14:26:01;29.10;36.60
81161;DHT22;70637;48.514;14.500;2023-09-19T14:28:27;29.10;36.70
81161;DHT22;70637;48.514;14.500;2023-09-19T14:30:55;29.10;36.60
81161;DHT22;70637;48.514;14.500;2023-09-19T14:33:21;29.10;36.50
81161;DHT22;70637;48.514;14.500;2023-09-19T14:35:47;29.10;36.70
81161;DHT22;70637;48.514;14.500;2023-09-19T14:38:12;29.10;36.70
81161;DHT22;70637;48.514;14.500;2023-09-19T14:40:39;29.10;36.80
81161;DHT22;70637;48.514;14.500;2023-09-19T14:43:05;29.10;36.80
81161;DHT22;70637;48.514;14.500;2023-09-19T14:45:35;29.10;36.80
81161;DHT22;70637;48.514;14.500;2023-09-19T14:48:01;29.20;36.90
81161;DHT22;70637;48.514;14.500;2023-09-19T14:50:30;29.20;36.90
81161;DHT22;70637;48.514;14.500;2023-09-19T14:52:56;29.20;37.00
81161;DHT22;70637;48.514;14.500;2023-09-19T14:55:23;29.10;36.90
81161;DHT22;70637;48.514;14.500;2023-09-19T14:57:52;29.10;36.80
81161;DHT22;70637;48.514;14.500;2023-09-19T15:00:18;29.10;36.90
81161;DHT22;70637;48.514;14.500;2023-09-19T15:02:46;29.10;36.80
81161;DHT22;70637;48.514;14.500;2023-09-19T15:05:16;29.10;37.90
81161;DHT22;70637;48.514;14.500;2023-09-19T15:07:41;29.20;37.00
81161;DHT22;70637;48.514;14.500;2023-09-19T15:10:10;29.20;37.10
81161;DHT22;70637;48.514;14.500;2023-09-19T15:12:36;29.20;37.00
81161;DHT22;70637;48.514;14.500;2023-09-19T15:15:04;29.20;36.90
81161;DHT22;70637;48.514;14.500;2023-09-19T15:17:33;29.20;36.90
81161;DHT22;70637;48.514;14.500;2023-09-19T15:19:59;29.20;36.90
81161;DHT22;70637;48.514;14.500;2023-09-19T15:22:27;29.20;37.00
81161;DHT22;70637;48.514;14.500;2023-09-19T15:24:53;29.20;37.00
81161;DHT22;70637;48.514;14.500;2023-09-19T15:27:19;29.10;36.90
81161;DHT22;70637;48.514;14.500;2023-09-19T15:29:46;29.20;36.90
81161;DHT22;70637;48.514;14.500;2023-09-19T15:32:12;29.10;36.90
81161;DHT22;70637;48.514;14.500;2023-09-19T15:34:40;29.20;36.90
81161;DHT22;70637;48.514;14.500;2023-09-19T15:37:06;29.10;37.00
81161;DHT22;70637;48.514;14.500;2023-09-19T15:39:32;29.20;37.10
81161;DHT22;70637;48.514;14.500;2023-09-19T15:41:59;29.20;37.20
81161;DHT22;70637;48.514;14.500;2023-09-19T15:44:25;29.20;37.20
81161;DHT22;70637;48.514;14.500;2023-09-19T15:46:53;29.20;37.20
81161;DHT22;70637;48.514;14.500;2023-09-19T15:49:19;29.20;37.10
81161;DHT22;70637;48.514;14.500;2023-09-19T15:51:45;29.10;37.00
81161;DHT22;70637;48.514;14.500;2023-09-19T15:54:15;29.10;37.10
81161;DHT22;70637;48.514;14.500;2023-09-19T15:56:45;29.10;37.10
81161;DHT22;70637;48.514;14.500;2023-09-19T15:59:11;29.20;37.10
81161;DHT22;70637;48.514;14.500;2023-09-19T16:01:44;29.10;37.00
81161;DHT22;70637;48.514;14.500;2023-09-19T16:04:11;29.20;37.10
81161;DHT22;70637;48.514;14.500;2023-09-19T16:06:38;29.10;37.00
81161;DHT22;70637;48.514;14.500;2023-09-19T16:09:04;29.10;37.00